createdAt,value
2018-09-19T00:00:40.374Z,100327.32
2018-09-19T00:01:58.058Z,100327.64
2018-09-19T00:03:16.948Z,100327.32
2018-09-19T00:04:36.918Z,100331.27
2018-09-19T00:05:43.839Z,100331.38
2018-09-19T00:06:59.430Z,100330.05
2018-09-19T00:08:21.653Z,100332.56
2018-09-19T00:09:41.135Z,100332.18
2018-09-19T00:11:02.426Z,100328.11
2018-09-19T00:12:14.195Z,100338.06
2018-09-19T00:13:30.648Z,100338.37
2018-09-19T00:14:52.237Z,100338.02
2018-09-19T00:16:14.294Z,100336.00
2018-09-19T00:17:34.361Z,100338.48
2018-09-19T00:18:54.801Z,100342.89
2018-09-19T00:20:14.404Z,100342.36
2018-09-19T00:21:35.977Z,100339.91
2018-09-19T00:22:57.137Z,100339.01
2018-09-19T00:24:20.261Z,100344.23
2018-09-19T00:25:42.229Z,100355.28
2018-09-19T00:27:00.473Z,100360.84
2018-09-19T00:28:24.105Z,100362.30
2018-09-19T00:29:43.284Z,100359.95
2018-09-19T00:31:06.249Z,100366.12
2018-09-19T00:32:26.347Z,100369.39
2018-09-19T00:33:44.472Z,100362.33
2018-09-19T00:35:07.181Z,100372.77
2018-09-19T00:36:28.309Z,100375.06
2018-09-19T00:37:48.237Z,100375.45
2018-09-19T00:39:06.462Z,100378.66
2018-09-19T00:40:25.840Z,100373.91
2018-09-19T00:41:45.322Z,100375.58
2018-09-19T00:43:03.144Z,100373.18
2018-09-19T00:44:23.457Z,100373.50
2018-09-19T00:45:46.663Z,100380.90
2018-09-19T00:47:06.257Z,100379.45
2018-09-19T00:48:26.051Z,100387.81
2018-09-19T00:49:46.211Z,100384.61
2018-09-19T00:51:05.229Z,100386.70
2018-09-19T00:52:25.162Z,100392.27
2018-09-19T00:53:48.719Z,100394.44
2018-09-19T00:55:07.475Z,100392.08
2018-09-19T00:56:22.891Z,100394.87
2018-09-19T00:57:43.419Z,100401.98
2018-09-19T00:59:00.672Z,100398.70
2018-09-19T01:00:21.647Z,100403.63
2018-09-19T01:01:31.117Z,100404.52
2018-09-19T01:02:47.877Z,100403.03
2018-09-19T01:04:07.807Z,100404.66
2018-09-19T01:05:27.197Z,100405.25
2018-09-19T01:06:48.770Z,100398.80
2018-09-19T01:08:08.404Z,100402.18
2018-09-19T01:09:23.173Z,100399.27
2018-09-19T01:10:40.743Z,100401.80
2018-09-19T01:11:58.851Z,100406.06
2018-09-19T01:13:19.596Z,100410.34
2018-09-19T01:14:37.253Z,100408.50
2018-09-19T01:15:56.871Z,100411.19
2018-09-19T01:17:17.512Z,100411.71
2018-09-19T01:18:34.808Z,100405.33
2018-09-19T01:19:49.961Z,100411.62
2018-09-19T01:21:05.313Z,100408.76
2018-09-19T01:22:20.486Z,100412.38
2018-09-19T01:23:35.932Z,100410.42
2018-09-19T01:24:53.914Z,100411.47
2018-09-19T01:26:09.238Z,100414.27
2018-09-19T01:27:24.569Z,100418.37
2018-09-19T01:28:40.096Z,100420.34
2018-09-19T01:29:56.763Z,100425.20
2018-09-19T01:31:13.924Z,100427.48
2018-09-19T01:32:27.925Z,100430.55
2018-09-19T01:33:43.413Z,100432.01
2018-09-19T01:34:58.144Z,100436.91
2018-09-19T01:36:13.133Z,100440.79
2018-09-19T01:37:29.583Z,100448.48
2018-09-19T01:38:46.726Z,100443.66
2018-09-19T01:40:03.864Z,100443.16
2018-09-19T01:41:21.660Z,100449.74
2018-09-19T01:42:42.007Z,100451.24
2018-09-19T01:44:01.978Z,100454.70
2018-09-19T01:45:22.786Z,100455.80
2018-09-19T01:46:45.678Z,100459.43
2018-09-19T01:48:07.729Z,100457.96
2018-09-19T01:49:24.935Z,100457.93
2018-09-19T01:50:44.789Z,100461.08
2018-09-19T01:52:02.807Z,100468.41
2018-09-19T01:53:21.845Z,100465.13
2018-09-19T01:54:43.514Z,100472.85
2018-09-19T01:56:03.436Z,100469.10
2018-09-19T01:57:23.299Z,100474.17
2018-09-19T01:58:43.269Z,100479.05
2018-09-19T02:00:02.783Z,100481.36
2018-09-19T02:01:21.778Z,100479.54
2018-09-19T02:02:41.315Z,100482.54
2018-09-19T02:04:03.076Z,100481.37
2018-09-19T02:05:22.474Z,100477.34
2018-09-19T02:06:42.978Z,100480.45
2018-09-19T02:08:04.143Z,100482.09
2018-09-19T02:09:21.976Z,100476.63
2018-09-19T02:10:41.641Z,100478.85
2018-09-19T02:12:02.020Z,100485.70
2018-09-19T02:13:22.794Z,100484.05
2018-09-19T02:14:41.835Z,100485.68
2018-09-19T02:16:01.319Z,100493.49
2018-09-19T02:17:24.930Z,100488.73
2018-09-19T02:18:50.115Z,100482.72
2018-09-19T02:20:08.986Z,100493.28
2018-09-19T02:21:26.392Z,100489.74
2018-09-19T02:22:43.770Z,100494.36
2018-09-19T02:24:03.020Z,100493.79
2018-09-19T02:25:23.083Z,100490.41
2018-09-19T02:26:42.644Z,100493.48
2018-09-19T02:28:01.841Z,100494.34
2018-09-19T02:29:21.736Z,100493.61
2018-09-19T02:30:40.210Z,100496.22
2018-09-19T02:32:01.892Z,100501.97
2018-09-19T02:33:21.201Z,100500.16
2018-09-19T02:34:41.010Z,100503.48
2018-09-19T02:35:59.719Z,100508.63
2018-09-19T02:37:19.570Z,100510.95
2018-09-19T02:38:38.101Z,100511.23
2018-09-19T02:39:56.698Z,100510.33
2018-09-19T02:41:14.206Z,100513.78
2018-09-19T02:42:35.006Z,100509.57
2018-09-19T02:43:55.139Z,100518.49
2018-09-19T02:45:20.287Z,100510.31
2018-09-19T02:46:42.043Z,100514.34
2018-09-19T02:48:03.423Z,100515.98
2018-09-19T02:49:23.235Z,100517.59
2018-09-19T02:50:43.168Z,100511.41
2018-09-19T02:52:02.373Z,100508.04
2018-09-19T02:53:21.342Z,100519.64
2018-09-19T02:54:40.786Z,100508.19
2018-09-19T02:56:02.078Z,100513.14
2018-09-19T02:57:20.734Z,100520.28
2018-09-19T02:58:38.774Z,100525.50
2018-09-19T02:59:59.697Z,100522.70
2018-09-19T03:01:23.669Z,100516.63
2018-09-19T03:02:45.795Z,100516.34
2018-09-19T03:04:06.201Z,100515.19
2018-09-19T03:05:27.033Z,100520.48
2018-09-19T03:06:45.885Z,100520.84
2018-09-19T03:08:05.655Z,100523.03
2018-09-19T03:09:25.362Z,100526.54
2018-09-19T03:10:44.687Z,100526.92
2018-09-19T03:12:03.566Z,100525.55
2018-09-19T03:13:21.537Z,100531.84
2018-09-19T03:14:40.926Z,100535.35
2018-09-19T03:16:00.227Z,100526.71
2018-09-19T03:17:25.242Z,100534.28
2018-09-19T03:18:45.985Z,100530.22
2018-09-19T03:20:09.678Z,100537.96
2018-09-19T03:21:31.448Z,100530.00
2018-09-19T03:22:55.122Z,100535.73
2018-09-19T03:24:11.460Z,100526.06
2018-09-19T03:25:32.758Z,100531.11
2018-09-19T03:26:53.109Z,100531.23
2018-09-19T03:28:10.597Z,100537.09
2018-09-19T03:29:29.176Z,100538.72
2018-09-19T03:30:49.678Z,100531.87
2018-09-19T03:32:09.004Z,100534.16
2018-09-19T03:33:28.326Z,100534.41
2018-09-19T03:34:48.806Z,100533.17
2018-09-19T03:36:06.383Z,100537.09
2018-09-19T03:37:22.367Z,100544.79
2018-09-19T03:38:40.240Z,100551.08
2018-09-19T03:40:00.709Z,100543.26
2018-09-19T03:41:21.072Z,100545.95
2018-09-19T03:42:40.605Z,100544.71
2018-09-19T03:44:01.428Z,100545.22
2018-09-19T03:45:23.447Z,100539.80
2018-09-19T03:46:42.148Z,100545.84
2018-09-19T03:48:03.393Z,100547.66
2018-09-19T03:49:18.117Z,100541.78
2018-09-19T03:50:38.062Z,100539.39
2018-09-19T03:51:55.209Z,100542.54
2018-09-19T03:53:13.534Z,100544.27
2018-09-19T03:54:33.746Z,100552.11
2018-09-19T03:55:56.428Z,100552.96
2018-09-19T03:57:16.402Z,100545.91
2018-09-19T03:58:38.400Z,100542.51
2018-09-19T04:00:02.050Z,100548.20
2018-09-19T04:01:22.776Z,100546.31
2018-09-19T04:02:43.233Z,100548.32
2018-09-19T04:04:02.529Z,100552.70
2018-09-19T04:05:23.785Z,100552.03
2018-09-19T04:06:47.090Z,100547.67
2018-09-19T04:08:07.521Z,100548.09
2018-09-19T04:09:27.951Z,100549.25
2018-09-19T04:10:54.259Z,100554.60
2018-09-19T04:12:13.617Z,100562.42
2018-09-19T04:13:34.756Z,100560.03
2018-09-19T04:14:43.099Z,100557.16
2018-09-19T04:15:49.601Z,100557.77
2018-09-19T04:16:56.459Z,100559.36
2018-09-19T04:18:02.903Z,100565.84
2018-09-19T04:19:09.239Z,100568.98
2018-09-19T04:20:15.640Z,100568.45
2018-09-19T04:21:22.067Z,100577.38
2018-09-19T04:22:28.384Z,100574.80
2018-09-19T04:23:42.399Z,100584.52
2018-09-19T04:24:50.076Z,100584.44
2018-09-19T04:25:56.125Z,100583.56
2018-09-19T04:27:02.710Z,100591.77
2018-09-19T04:28:09.049Z,100585.50
2018-09-19T04:29:15.402Z,100589.82
2018-09-19T04:30:21.746Z,100592.87
2018-09-19T04:31:28.064Z,100601.48
2018-09-19T04:32:34.801Z,100602.38
2018-09-19T04:33:41.164Z,100602.95
2018-09-19T04:34:47.484Z,100596.87
2018-09-19T04:35:53.894Z,100597.50
2018-09-19T04:37:00.351Z,100594.46
2018-09-19T04:38:06.661Z,100597.36
2018-09-19T04:39:12.992Z,100601.38
2018-09-19T04:40:19.278Z,100607.48
2018-09-19T04:41:25.649Z,100605.66
2018-09-19T04:42:32.505Z,100604.13
2018-09-19T04:43:39.035Z,100603.67
2018-09-19T04:44:45.375Z,100610.82
2018-09-19T04:45:51.821Z,100608.50
2018-09-19T04:46:58.166Z,100610.82
2018-09-19T04:48:04.472Z,100614.25
2018-09-19T04:49:10.850Z,100610.66
2018-09-19T04:50:17.307Z,100611.91
2018-09-19T04:51:23.667Z,100619.39
2018-09-19T04:52:29.887Z,100614.37
2018-09-19T04:53:36.203Z,100610.16
2018-09-19T04:54:42.487Z,100618.96
2018-09-19T04:55:49.023Z,100612.27
2018-09-19T04:56:55.361Z,100621.19
2018-09-19T04:58:01.646Z,100622.70
2018-09-19T04:59:08.013Z,100616.52
2018-09-19T05:00:15.732Z,100612.86
2018-09-19T05:01:22.061Z,100621.70
2018-09-19T05:02:28.378Z,100618.39
2018-09-19T05:03:34.787Z,100620.72
2018-09-19T05:04:41.210Z,100624.92
2018-09-19T05:05:47.585Z,100624.84
2018-09-19T05:06:54.064Z,100625.51
2018-09-19T05:08:00.403Z,100626.22
2018-09-19T05:09:06.389Z,100629.70
2018-09-19T05:10:13.715Z,100633.88
2018-09-19T05:11:20.161Z,100632.27
2018-09-19T05:12:26.714Z,100629.94
2018-09-19T05:13:33.095Z,100625.44
2018-09-19T05:14:39.557Z,100632.20
2018-09-19T05:15:46.027Z,100629.22
2018-09-19T05:16:52.489Z,100632.70
2018-09-19T05:17:58.934Z,100638.84
2018-09-19T05:19:06.156Z,100639.70
2018-09-19T05:20:13.388Z,100642.94
2018-09-19T05:21:21.239Z,100645.83
2018-09-19T05:22:29.965Z,100640.98
2018-09-19T05:23:37.190Z,100647.73
2018-09-19T05:24:44.545Z,100648.05
2018-09-19T05:25:50.833Z,100655.34
2018-09-19T05:26:57.683Z,100654.03
2018-09-19T05:28:04.097Z,100653.94
2018-09-19T05:29:21.557Z,100655.44
2018-09-19T05:30:29.712Z,100658.93
2018-09-19T05:31:37.109Z,100657.78
2018-09-19T05:32:43.585Z,100653.59
2018-09-19T05:33:50.813Z,100657.62
2018-09-19T05:34:57.122Z,100656.59
2018-09-19T05:36:03.412Z,100657.63
2018-09-19T05:37:09.664Z,100662.20
2018-09-19T05:38:16.095Z,100662.75
2018-09-19T05:39:23.605Z,100654.55
2018-09-19T05:40:30.377Z,100659.22
2018-09-19T05:41:37.149Z,100663.06
2018-09-19T05:42:48.625Z,100659.40
2018-09-19T05:43:54.959Z,100660.31
2018-09-19T05:45:01.099Z,100660.64
2018-09-19T05:46:07.478Z,100667.84
2018-09-19T05:47:13.785Z,100667.61
2018-09-19T05:48:20.139Z,100667.83
2018-09-19T05:49:26.433Z,100665.80
2018-09-19T05:50:34.290Z,100668.03
2018-09-19T05:51:40.688Z,100668.95
2018-09-19T05:52:46.983Z,100673.91
2018-09-19T05:53:53.314Z,100665.80
2018-09-19T05:54:59.627Z,100667.02
2018-09-19T05:56:06.029Z,100674.42
2018-09-19T05:57:12.462Z,100674.86
2018-09-19T05:58:18.909Z,100681.25
2018-09-19T05:59:25.312Z,100682.06
2018-09-19T06:00:31.646Z,100692.67
2018-09-19T06:01:37.994Z,100687.66
2018-09-19T06:02:45.292Z,100690.09
2018-09-19T06:03:51.686Z,100689.63
2018-09-19T06:04:58.141Z,100691.19
2018-09-19T06:06:04.726Z,100694.47
2018-09-19T06:07:11.115Z,100693.20
2018-09-19T06:08:17.466Z,100691.88
2018-09-19T06:09:23.797Z,100691.15
2018-09-19T06:10:31.046Z,100690.23
2018-09-19T06:11:37.788Z,100690.83
2018-09-19T06:12:44.213Z,100687.48
2018-09-19T06:13:50.047Z,100692.80
2018-09-19T06:14:56.370Z,100689.70
2018-09-19T06:16:02.757Z,100691.80
2018-09-19T06:17:09.119Z,100689.39
2018-09-19T06:18:15.536Z,100690.30
2018-09-19T06:19:21.854Z,100695.58
2018-09-19T06:20:28.151Z,100695.28
2018-09-19T06:21:34.591Z,100696.25
2018-09-19T06:22:40.879Z,100696.98
2018-09-19T06:23:47.289Z,100704.61
2018-09-19T06:24:53.701Z,100699.48
2018-09-19T06:25:59.981Z,100698.33
2018-09-19T06:27:06.493Z,100699.81
2018-09-19T06:28:12.792Z,100704.08
2018-09-19T06:29:19.191Z,100704.50
2018-09-19T06:30:25.606Z,100705.75
2018-09-19T06:31:32.031Z,100712.81
2018-09-19T06:32:38.351Z,100714.13
2018-09-19T06:33:44.700Z,100718.05
2018-09-19T06:34:51.208Z,100724.55
2018-09-19T06:35:57.587Z,100728.11
2018-09-19T06:37:04.023Z,100729.62
2018-09-19T06:38:10.460Z,100732.54
2018-09-19T06:39:16.758Z,100730.29
2018-09-19T06:40:23.140Z,100726.11
2018-09-19T06:41:29.710Z,100725.18
2018-09-19T06:42:37.218Z,100724.15
2018-09-19T06:43:43.586Z,100723.38
2018-09-19T06:44:49.896Z,100723.80
2018-09-19T06:45:56.183Z,100728.27
2018-09-19T06:47:02.608Z,100726.55
2018-09-19T06:48:09.119Z,100727.17
2018-09-19T06:49:15.411Z,100730.90
2018-09-19T06:50:22.203Z,100732.73
2018-09-19T06:51:28.827Z,100729.23
2018-09-19T06:52:35.295Z,100731.61
2018-09-19T06:53:41.814Z,100726.67
2018-09-19T06:54:48.207Z,100735.24
2018-09-19T06:55:54.557Z,100727.03
2018-09-19T06:57:00.965Z,100727.93
2018-09-19T06:58:07.527Z,100723.74
2018-09-19T06:59:13.940Z,100727.02
2018-09-19T07:00:20.306Z,100728.45
2018-09-19T07:01:26.486Z,100726.67
2018-09-19T07:02:32.838Z,100730.19
2018-09-19T07:03:40.296Z,100735.63
2018-09-19T07:04:47.504Z,100742.33
2018-09-19T07:05:54.607Z,100736.09
2018-09-19T07:07:01.832Z,100741.56
2018-09-19T07:08:08.348Z,100743.14
2018-09-19T07:09:15.135Z,100750.46
2018-09-19T07:10:21.527Z,100750.97
2018-09-19T07:11:28.073Z,100752.66
2018-09-19T07:12:34.445Z,100747.73
2018-09-19T07:13:40.865Z,100748.74
2018-09-19T07:14:47.191Z,100748.22
2018-09-19T07:15:53.561Z,100753.11
2018-09-19T07:16:59.941Z,100749.73
2018-09-19T07:18:06.308Z,100752.77
2018-09-19T07:19:12.623Z,100755.06
2018-09-19T07:20:18.982Z,100757.60
2018-09-19T07:21:25.410Z,100757.90
2018-09-19T07:22:31.809Z,100763.97
2018-09-19T07:23:38.289Z,100762.05
2018-09-19T07:24:44.782Z,100759.23
2018-09-19T07:25:50.955Z,100757.77
2018-09-19T07:26:57.992Z,100758.77
2018-09-19T07:28:04.340Z,100754.33
2018-09-19T07:29:10.807Z,100760.09
2018-09-19T07:30:17.252Z,100758.63
2018-09-19T07:31:23.576Z,100761.12
2018-09-19T07:32:30.079Z,100762.55
2018-09-19T07:33:36.541Z,100759.39
2018-09-19T07:34:42.986Z,100763.67
2018-09-19T07:35:49.349Z,100765.32
2018-09-19T07:36:55.692Z,100759.52
2018-09-19T07:38:02.109Z,100759.00
2018-09-19T07:39:08.439Z,100763.27
2018-09-19T07:40:16.768Z,100761.02
2018-09-19T07:41:23.407Z,100757.14
2018-09-19T07:42:29.778Z,100764.36
2018-09-19T07:43:36.172Z,100762.48
2018-09-19T07:44:42.519Z,100766.20
2018-09-19T07:45:48.875Z,100761.46
2018-09-19T07:46:56.159Z,100758.36
2018-09-19T07:48:02.498Z,100757.05
2018-09-19T07:49:08.884Z,100763.42
2018-09-19T07:50:15.212Z,100764.81
2018-09-19T07:51:21.563Z,100768.55
2018-09-19T07:52:27.991Z,100764.02
2018-09-19T07:53:34.444Z,100767.97
2018-09-19T07:54:40.852Z,100767.95
2018-09-19T07:55:47.444Z,100771.97
2018-09-19T07:56:54.137Z,100769.84
2018-09-19T07:58:00.672Z,100768.35
2018-09-19T07:59:06.989Z,100766.53
2018-09-19T08:00:13.346Z,100766.30
2018-09-19T08:01:19.811Z,100772.41
2018-09-19T08:02:26.397Z,100771.38
2018-09-19T08:03:32.731Z,100774.22
2018-09-19T08:04:39.126Z,100773.90
2018-09-19T08:05:45.132Z,100772.73
2018-09-19T08:06:51.531Z,100767.23
2018-09-19T08:07:57.887Z,100767.27
2018-09-19T08:09:03.672Z,100764.65
2018-09-19T08:10:10.268Z,100765.98
2018-09-19T08:11:16.598Z,100767.65
2018-09-19T08:12:22.950Z,100762.76
2018-09-19T08:13:29.283Z,100764.36
2018-09-19T08:14:35.742Z,100762.35
2018-09-19T08:15:42.061Z,100766.98
2018-09-19T08:16:48.373Z,100764.41
2018-09-19T08:17:54.916Z,100764.14
2018-09-19T08:19:01.897Z,100768.85
2018-09-19T08:20:08.332Z,100769.00
2018-09-19T08:21:14.678Z,100771.42
2018-09-19T08:22:21.088Z,100769.75
2018-09-19T08:23:27.653Z,100769.63
2018-09-19T08:24:34.035Z,100771.73
2018-09-19T08:25:40.399Z,100771.57
2018-09-19T08:26:46.788Z,100766.07
2018-09-19T08:27:53.171Z,100770.05
2018-09-19T08:28:59.552Z,100770.84
2018-09-19T08:30:05.552Z,100776.86
2018-09-19T08:31:11.988Z,100771.72
2018-09-19T08:32:18.386Z,100763.69
2018-09-19T08:33:24.803Z,100766.94
2018-09-19T08:34:31.212Z,100765.27
2018-09-19T08:35:37.359Z,100769.28
2018-09-19T08:36:43.673Z,100768.98
2018-09-19T08:37:50.107Z,100767.09
2018-09-19T08:38:56.494Z,100764.89
2018-09-19T08:40:02.872Z,100770.25
2018-09-19T08:41:09.222Z,100765.74
2018-09-19T08:42:15.575Z,100762.91
2018-09-19T08:43:21.928Z,100759.48
2018-09-19T08:44:28.341Z,100760.85
2018-09-19T08:45:34.651Z,100763.31
2018-09-19T08:46:41.413Z,100760.72
2018-09-19T08:47:47.803Z,100749.77
2018-09-19T08:48:54.185Z,100757.17
2018-09-19T08:50:00.489Z,100760.16
2018-09-19T08:51:07.095Z,100757.07
2018-09-19T08:52:13.423Z,100750.98
2018-09-19T08:53:19.819Z,100749.78
2018-09-19T08:54:26.176Z,100759.14
2018-09-19T08:55:31.960Z,100750.84
2018-09-19T08:56:38.220Z,100755.58
2018-09-19T08:57:44.462Z,100755.77
2018-09-19T08:58:50.746Z,100754.01
2018-09-19T08:59:56.994Z,100756.88
2018-09-19T09:01:03.219Z,100758.30
2018-09-19T09:02:09.229Z,100757.09
2018-09-19T09:03:15.495Z,100754.08
2018-09-19T09:04:21.444Z,100753.97
2018-09-19T09:05:27.843Z,100746.26
2018-09-19T09:06:34.193Z,100745.31
2018-09-19T09:07:40.450Z,100746.39
2018-09-19T09:08:46.735Z,100751.33
2018-09-19T09:09:53.006Z,100747.80
2018-09-19T09:10:59.251Z,100743.52
2018-09-19T09:12:05.510Z,100738.08
2018-09-19T09:13:11.921Z,100741.09
2018-09-19T09:14:18.200Z,100746.02
2018-09-19T09:15:24.433Z,100738.10
2018-09-19T09:16:30.669Z,100741.60
2018-09-19T09:17:36.933Z,100738.81
2018-09-19T09:18:43.221Z,100735.15
2018-09-19T09:19:49.492Z,100738.48
2018-09-19T09:20:55.682Z,100735.70
2018-09-19T09:22:01.924Z,100741.13
2018-09-19T09:23:08.157Z,100747.07
2018-09-19T09:24:14.423Z,100737.48
2018-09-19T09:25:20.659Z,100736.38
2018-09-19T09:26:26.905Z,100748.39
2018-09-19T09:27:33.217Z,100743.28
2018-09-19T09:28:39.495Z,100739.98
2018-09-19T09:29:45.755Z,100741.14
2018-09-19T09:30:52.027Z,100738.89
2018-09-19T09:31:58.334Z,100739.73
2018-09-19T09:33:04.557Z,100728.16
2018-09-19T09:34:10.855Z,100731.87
2018-09-19T09:35:17.337Z,100735.97
2018-09-19T09:36:23.603Z,100728.86
2018-09-19T09:37:29.833Z,100725.92
2018-09-19T09:38:35.782Z,100734.70
2018-09-19T09:39:42.066Z,100725.22
2018-09-19T09:40:48.315Z,100728.95
2018-09-19T09:41:54.581Z,100724.29
2018-09-19T09:43:00.825Z,100724.54
2018-09-19T09:44:07.112Z,100725.69
2018-09-19T09:45:12.993Z,100728.05
2018-09-19T09:46:19.262Z,100732.18
2018-09-19T09:47:25.572Z,100735.45
2018-09-19T09:48:31.822Z,100731.74
2018-09-19T09:49:38.093Z,100726.54
2018-09-19T09:50:44.056Z,100734.27
2018-09-19T09:51:50.304Z,100732.58
2018-09-19T09:52:56.537Z,100729.81
2018-09-19T09:54:02.774Z,100732.34
2018-09-19T09:55:09.035Z,100726.80
2018-09-19T09:56:15.490Z,100728.61
2018-09-19T09:57:21.473Z,100727.16
2018-09-19T09:58:27.700Z,100730.09
2018-09-19T09:59:33.954Z,100726.42
2018-09-19T10:00:39.880Z,100731.31
2018-09-19T10:01:46.134Z,100729.67
2018-09-19T10:02:52.436Z,100722.45
2018-09-19T10:03:58.712Z,100725.02
2018-09-19T10:05:04.964Z,100721.73
2018-09-19T10:06:11.232Z,100720.30
2018-09-19T10:07:17.481Z,100716.85
2018-09-19T10:08:23.724Z,100715.35
2018-09-19T10:09:29.991Z,100715.88
2018-09-19T10:10:36.265Z,100706.58
2018-09-19T10:11:42.230Z,100705.11
2018-09-19T10:12:48.182Z,100704.58
2018-09-19T10:13:54.476Z,100699.17
2018-09-19T10:15:00.709Z,100692.85
2018-09-19T10:16:06.650Z,100690.69
2018-09-19T10:17:12.912Z,100690.15
2018-09-19T10:18:18.870Z,100688.02
2018-09-19T10:19:24.971Z,100683.89
2018-09-19T10:20:31.245Z,100683.38
2018-09-19T10:21:37.183Z,100678.77
2018-09-19T10:22:43.151Z,100678.05
2018-09-19T10:23:49.152Z,100668.71
2018-09-19T10:24:55.149Z,100673.42
2018-09-19T10:26:01.397Z,100675.39
2018-09-19T10:27:06.993Z,100676.27
2018-09-19T10:28:12.961Z,100680.52
2018-09-19T10:29:19.244Z,100679.02
2018-09-19T10:30:24.833Z,100667.63
2018-09-19T10:31:31.101Z,100670.12
2018-09-19T10:32:37.099Z,100673.12
2018-09-19T10:33:43.041Z,100679.94
2018-09-19T10:34:49.040Z,100686.59
2018-09-19T10:35:55.013Z,100677.41
2018-09-19T10:37:00.958Z,100679.69
2018-09-19T10:38:06.920Z,100678.50
2018-09-19T10:39:12.840Z,100680.07
2018-09-19T10:40:18.802Z,100673.83
2018-09-19T10:41:24.792Z,100666.94
2018-09-19T10:42:30.740Z,100669.94
2018-09-19T10:43:36.976Z,100666.86
2018-09-19T10:44:42.968Z,100656.07
2018-09-19T10:45:48.924Z,100662.89
2018-09-19T10:46:54.839Z,100654.16
2018-09-19T10:48:00.794Z,100651.86
2018-09-19T10:49:06.759Z,100654.30
2018-09-19T10:50:12.737Z,100651.11
2018-09-19T10:51:18.679Z,100651.70
2018-09-19T10:52:24.637Z,100650.11
2018-09-19T10:53:30.619Z,100653.63
2018-09-19T10:54:36.790Z,100650.34
2018-09-19T10:55:42.729Z,100652.36
2018-09-19T10:56:48.693Z,100647.31
2018-09-19T10:57:54.907Z,100640.47
2018-09-19T10:59:00.983Z,100639.00
2018-09-19T11:00:06.905Z,100637.98
2018-09-19T11:01:13.608Z,100638.23
2018-09-19T11:02:19.566Z,100637.55
2018-09-19T11:03:25.559Z,100638.64
2018-09-19T11:04:31.567Z,100637.86
2018-09-19T11:05:37.574Z,100637.44
2018-09-19T11:06:43.519Z,100630.59
2018-09-19T11:07:49.461Z,100634.47
2018-09-19T11:08:55.449Z,100628.34
2018-09-19T11:10:01.417Z,100635.73
2018-09-19T11:11:07.364Z,100633.16
2018-09-19T11:12:13.299Z,100630.34
2018-09-19T11:13:19.225Z,100626.19
2018-09-19T11:14:25.160Z,100633.63
2018-09-19T11:15:31.316Z,100629.98
2018-09-19T11:16:37.298Z,100627.23
2018-09-19T11:17:43.389Z,100627.73
2018-09-19T11:18:49.333Z,100624.25
2018-09-19T11:19:56.239Z,100624.44
2018-09-19T11:21:02.165Z,100625.39
2018-09-19T11:22:08.076Z,100619.10
2018-09-19T11:23:14.093Z,100613.89
2018-09-19T11:24:20.060Z,100617.33
2018-09-19T11:25:26.047Z,100617.19
2018-09-19T11:26:32.014Z,100619.97
2018-09-19T11:27:37.964Z,100616.70
2018-09-19T11:28:43.912Z,100615.52
2018-09-19T11:29:49.875Z,100618.78
2018-09-19T11:30:55.471Z,100616.71
2018-09-19T11:32:01.409Z,100612.52
2018-09-19T11:33:07.413Z,100612.27
2018-09-19T11:34:13.380Z,100604.47
2018-09-19T11:35:19.361Z,100604.96
2018-09-19T11:36:25.369Z,100602.56
2018-09-19T11:37:31.333Z,100600.14
2018-09-19T11:38:37.282Z,100600.77
2018-09-19T11:39:43.213Z,100598.92
2018-09-19T11:40:48.837Z,100598.23
2018-09-19T11:41:54.785Z,100600.61
2018-09-19T11:43:00.730Z,100599.77
2018-09-19T11:44:06.448Z,100597.59
2018-09-19T11:45:12.444Z,100597.77
2018-09-19T11:46:18.435Z,100593.97
2018-09-19T11:47:24.631Z,100589.07
2018-09-19T11:48:30.602Z,100591.22
2018-09-19T11:49:36.602Z,100585.03
2018-09-19T11:50:42.593Z,100584.74
2018-09-19T11:51:48.530Z,100588.45
2018-09-19T11:52:54.513Z,100586.59
2018-09-19T11:54:00.462Z,100584.66
2018-09-19T11:55:06.070Z,100582.38
2018-09-19T11:56:12.045Z,100583.89
2018-09-19T11:57:18.013Z,100579.17
2018-09-19T11:58:23.948Z,100580.73
2018-09-19T11:59:29.669Z,100584.25
2018-09-19T12:00:35.640Z,100577.81
2018-09-19T12:01:41.571Z,100572.37
2018-09-19T12:02:47.516Z,100581.75
2018-09-19T12:03:53.173Z,100573.58
2018-09-19T12:04:59.147Z,100577.23
2018-09-19T12:06:05.168Z,100575.61
2018-09-19T12:07:10.876Z,100573.42
2018-09-19T12:08:16.811Z,100575.73
2018-09-19T12:09:22.781Z,100573.16
2018-09-19T12:10:30.526Z,100578.07
2018-09-19T12:11:37.685Z,100565.53
2018-09-19T12:12:44.436Z,100572.50
2018-09-19T12:13:50.405Z,100570.59
2018-09-19T12:14:56.367Z,100576.22
2018-09-19T12:16:02.782Z,100569.30
2018-09-19T12:17:08.729Z,100573.38
2018-09-19T12:18:14.688Z,100572.83
2018-09-19T12:19:20.640Z,100566.93
2018-09-19T12:20:26.294Z,100566.93
2018-09-19T12:21:32.233Z,100565.86
2018-09-19T12:22:38.212Z,100564.25
2018-09-19T12:23:44.241Z,100562.63
2018-09-19T12:24:50.187Z,100565.67
2018-09-19T12:25:56.185Z,100556.44
2018-09-19T12:27:02.108Z,100558.77
2018-09-19T12:28:08.063Z,100555.48
2018-09-19T12:29:14.018Z,100563.88
2018-09-19T12:30:20.046Z,100559.13
2018-09-19T12:31:26.216Z,100552.80
2018-09-19T12:32:32.168Z,100546.78
2018-09-19T12:33:38.115Z,100548.64
2018-09-19T12:34:44.074Z,100539.78
2018-09-19T12:35:50.047Z,100539.16
2018-09-19T12:36:56.060Z,100538.07
2018-09-19T12:38:02.000Z,100537.16
2018-09-19T12:39:07.943Z,100533.86
2018-09-19T12:40:13.874Z,100534.12
2018-09-19T12:41:19.878Z,100536.69
2018-09-19T12:42:25.832Z,100540.24
2018-09-19T12:43:32.706Z,100529.45
2018-09-19T12:44:38.650Z,100530.61
2018-09-19T12:45:44.620Z,100528.17
2018-09-19T12:46:50.347Z,100530.36
2018-09-19T12:47:56.286Z,100522.50
2018-09-19T12:49:02.269Z,100528.66
2018-09-19T12:50:07.810Z,100527.57
2018-09-19T12:51:13.784Z,100525.44
2018-09-19T12:52:19.730Z,100524.63
2018-09-19T12:53:25.726Z,100524.53
2018-09-19T12:54:31.884Z,100521.67
2018-09-19T12:55:37.493Z,100514.69
2018-09-19T12:56:44.362Z,100524.58
2018-09-19T12:57:50.308Z,100519.20
2018-09-19T12:58:56.032Z,100519.52
2018-09-19T13:00:02.198Z,100516.58
2018-09-19T13:01:08.005Z,100520.20
2018-09-19T13:02:14.004Z,100519.78
2018-09-19T13:03:19.951Z,100512.74
2018-09-19T13:04:25.892Z,100507.11
2018-09-19T13:05:31.849Z,100506.53
2018-09-19T13:06:37.831Z,100509.07
2018-09-19T13:07:43.790Z,100499.62
2018-09-19T13:08:49.739Z,100507.98
2018-09-19T13:09:55.681Z,100502.98
2018-09-19T13:11:01.654Z,100500.43
2018-09-19T13:12:07.601Z,100500.76
2018-09-19T13:13:13.531Z,100503.91
2018-09-19T13:14:19.458Z,100499.23
2018-09-19T13:15:25.411Z,100497.59
2018-09-19T13:16:31.373Z,100492.81
2018-09-19T13:17:37.308Z,100497.55
2018-09-19T13:18:43.248Z,100494.63